Latest Coastal Weather Observations for Lord Howe Island

IDN60701

Issued at 2:01 am EDT Friday 20 January 2017 (issued every 10 minutes, with the page automatically refreshed every 10 minutes)

About coastal observations | Map of coastal stations | Coastal observations for NSW | Marine services | Other Formats
Station Details ID: 200839 Name: LORD HOWE ISLAND AERO Lat: -31.54 Lon: 159.08 Height: 5.0 m
Data from the previous 72 hours. | See also: Recent months at Lord Howe Island
Date/Time
EDT
Temp
°C
Wind Pressure Rain since
9am
mm
Weather Cloud Vis
km
Sea
Height
m
Swell
Dir  Spd
kts
Gust
kts
hPa Trend Height
m
Period
s
Dir
20/02:00am 20.4 SE 6 8 1011.5 - 0.0 - - 10 - - - -
20/01:30am 20.5 SE 5 8 1011.5 - 0.0 - - 10 - - - -
20/01:00am 20.5 SE 6 8 1011.4 - 0.0 - - 10 - - - -
20/12:30am 20.5 SE 6 8 1011.7 - 0.0 - - 10 - - - -
20/12:00am 20.6 SE 6 8 1012.0 - 0.0 - - 10 - - - -
 
Date/Time
EDT
Temp
°C
Wind Pressure Rain since
9am
mm
Weather Cloud Vis
km
Sea
Height
m
Swell
Dir  Spd
kts
Gust
kts
hPa Trend Height
m
Period
s
Dir
19/11:30pm 20.7 SE 5 8 1012.1 - 0.0 - - 10 - - - -
19/11:00pm 21.2 ESE 6 11 1012.3 - 0.0 - Partly cloudy 10 - - - -
19/10:30pm 21.2 E 7 12 1012.5 - 0.0 - Partly cloudy 10 - - - -
19/10:00pm 21.1 ESE 5 9 1012.6 - 0.0 - Partly cloudy 10 - - - -
19/09:30pm 21.4 SE 5 9 1012.5 - 0.0 - Partly cloudy 10 - - - -
19/09:00pm 21.4 SE 7 10 1012.4 - 0.0 - Partly cloudy 10 - - - -
19/08:30pm 21.6 SSE 7 11 1012.3 - 0.0 - Partly cloudy 10 - - - -
19/08:00pm 21.7 SE 6 10 1012.0 - 0.0 - Partly cloudy 10 - - - -
19/07:30pm 21.8 ESE 8 16 1011.8 - 0.0 - Partly cloudy 10 - - - -
19/07:00pm 22.0 E 9 14 1011.6 - 0.0 - Partly cloudy 10 - - - -
19/06:30pm 22.5 E 9 15 1011.4 - 0.0 - Partly cloudy 10 - - - -
19/06:00pm 23.0 E 10 16 1011.1 - 0.0 - Partly cloudy 10 - - - -
19/05:30pm 23.3 ENE 7 13 1010.9 - 0.0 - Partly cloudy 10 - - - -
19/05:00pm 23.5 E 11 19 1010.8 - 0.0 - Mostly clear 10 - - - -
19/04:30pm 23.9 NE 11 23 1010.8 - 0.0 - Partly cloudy 10 - - - -
19/04:00pm 24.0 E 11 20 1010.9 - 0.0 - Partly cloudy 10 - - - -
19/03:30pm 24.1 WSW 6 13 1011.1 - 0.0 - Partly cloudy 10 - - - -
19/03:00pm 24.8 SSW 7 16 1011.1 - 0.0 - Partly cloudy 10 - - - -
19/02:30pm 24.4 WSW 7 14 1011.4 - 0.0 - Mostly clear 10 - - - -
19/02:00pm 25.1 SW 7 13 1011.4 - 0.0 - Partly cloudy 10 - - - -
19/01:30pm 24.6 SSW 8 14 1011.5 - 0.0 - Partly cloudy 10 - - - -
19/01:00pm 24.4 SSE 6 16 1011.5 - 0.0 - Partly cloudy 10 - - - -
19/12:30pm 25.0 SSW 8 13 1011.7 - 0.0 - Partly cloudy 10 - - - -
19/12:00pm 24.5 SSW 7 15 1011.7 - 0.0 - Cloudy 10 - - - -
19/11:30am 24.3 SSW 7 19 1011.7 - 0.0 - Partly cloudy 10 - - - -
19/11:00am 24.1 SSW 9 25 1011.7 - 0.0 - Partly cloudy 10 - - - -
19/10:30am 24.8 ESE 11 22 1011.3 - 0.0 - Partly cloudy 10 - - - -
19/10:00am 24.5 SE 10 21 1011.1 - 0.0 - Partly cloudy 10 - - - -
19/09:30am 23.1 SE 9 16 1010.7 - 0.0 Showers Mostly clear 10 - - - -
19/09:00am 23.4 ESE 11 18 1010.8 - 0.8 - Partly cloudy 10 - - - -
19/08:30am 23.4 SE 12 21 1010.6 - 0.8 - Mostly clear 10 - - - -
19/08:00am 23.6 SE 13 20 1010.2 - 0.8 - Mostly clear 10 - - - -
19/07:40am 23.6 ESE 15 26 1010.3 - 0.8 - - 10 - - - -
19/07:30am 23.6 SE 12 21 1009.9 - 0.8 - Partly cloudy 10 - - - -
19/07:00am 23.7 SE 11 23 1009.6 - 0.8 - Partly cloudy 10 - - - -
19/06:30am 23.7 SE 12 19 1009.3 - 0.8 - Partly cloudy 10 - - - -
19/06:00am 23.7 SE 12 22 1009.0 - 0.8 - Partly cloudy 10 - - - -
19/05:30am 23.9 SE 12 19 1008.2 - 0.8 - Partly cloudy 10 - - - -
19/05:00am 23.8 ESE 13 22 1007.9 - 0.8 - Partly cloudy 10 - - - -
19/04:30am 23.6 SE 12 21 1007.9 - 0.8 - Partly cloudy 10 - - - -
19/04:00am 24.4 SE 9 18 1007.3 - 0.8 - Partly cloudy 10 - - - -
19/03:30am 23.8 ESE 10 15 1006.9 - 0.8 - Partly cloudy 10 - - - -
19/03:01am 24.0 NNE 5 9 1007.5 - 0.8 - Partly cloudy 10 - - - -
19/03:00am 24.0 NE 5 9 1007.5 - 0.8 - Cloudy 10 - - - -
19/02:59am 24.0 NNE 5 9 1007.6 - 0.8 - Partly cloudy 10 - - - -
19/02:30am 25.0 WSW 15 19 1007.6 - 0.2 - Partly cloudy 5 - - - -
19/02:08am 25.1 W 14 18 1007.8 - 0.2 - Partly cloudy 6 - - - -
19/02:00am 25.2 W 13 16 1007.8 - 0.2 - Partly cloudy 8 - - - -
19/01:50am 25.2 W 15 17 1007.8 - 0.2 - Partly cloudy 8 - - - -
19/01:30am 25.2 WSW 14 16 1007.8 - 0.2 - Partly cloudy 10 - - - -
19/01:00am 25.3 W 14 17 1008.1 - 0.2 - Partly cloudy 10 - - - -
19/12:49am 25.2 W 14 17 1008.4 - 0.2 - Partly cloudy 10 - - - -
19/12:30am 25.3 WSW 16 20 1008.7 - 0.2 - Partly cloudy 10 - - - -
19/12:00am 25.2 W 15 18 1008.8 - 0.2 - Cloudy 10 - - - -
 
Date/Time
EDT
Temp
°C
Wind Pressure Rain since
9am
mm
Weather Cloud Vis
km
Sea
Height
m
Swell
Dir  Spd
kts
Gust
kts
hPa Trend Height
m
Period
s
Dir
18/11:30pm 25.2 W 13 16 1008.9 - 0.2 - Partly cloudy 10 - - - -
18/11:00pm 25.2 W 12 14 1009.0 - 0.2 - Partly cloudy 9 - - - -
18/10:30pm 25.3 W 11 15 1009.0 - 0.2 - Partly cloudy 10 - - - -
18/10:00pm 25.3 W 10 13 1009.0 - 0.2 - Partly cloudy 10 - - - -
18/09:30pm 25.4 W 8 10 1009.0 - 0.2 - Cloudy 10 - - - -
18/09:00pm 25.4 WNW 7 11 1008.9 - 0.2 - Cloudy 10 - - - -
18/08:30pm 25.4 W 7 12 1008.7 - 0.2 - Partly cloudy 10 - - - -
18/08:16pm 25.3 W 7 11 1008.5 - 0.2 - Partly cloudy 10 - - - -
18/08:00pm 25.3 W 7 11 1008.5 - 0.2 - Partly cloudy 10 - - - -
18/07:30pm 25.5 WNW 9 16 1008.4 - 0.2 - - 10 - - - -
18/07:00pm 25.7 WNW 9 15 1008.4 - 0.2 - - 10 - - - -
18/06:30pm 26.6 WNW 9 15 1008.5 - 0.2 - - 10 - - - -
18/06:00pm 26.5 WNW 9 17 1008.2 - 0.2 - - 10 - - - -
18/05:30pm 26.7 WNW 12 23 1008.1 - 0.2 - - 10 - - - -
18/05:00pm 27.7 WNW 9 18 1008.1 - 0.2 - Mostly clear 10 - - - -
18/04:30pm 27.4 WNW 11 19 1008.7 - 0.2 - Mostly clear 10 - - - -
18/04:00pm 27.8 WNW 10 19 1008.9 - 0.2 - Mostly clear 10 - - - -
18/03:30pm 27.9 WNW 10 19 1009.1 - 0.2 - Mostly clear 10 - - - -
18/03:00pm 28.3 WNW 12 19 1009.5 - 0.2 - Mostly clear 10 - - - -
18/02:30pm 28.4 WNW 11 20 1010.2 - 0.2 - Mostly clear 10 - - - -
18/02:00pm 28.3 WNW 10 16 1010.6 - 0.2 - Mostly clear 10 - - - -
18/01:30pm 29.2 WNW 10 16 1010.9 - 0.2 - Mostly clear 10 - - - -
18/01:00pm 28.2 NNW 10 16 1011.2 - 0.2 - Mostly clear 10 - - - -
18/12:30pm 28.6 WNW 10 19 1011.6 - 0.2 - Mostly clear 10 - - - -
18/12:00pm 27.9 WNW 11 18 1012.0 - 0.2 - Mostly clear 10 - - - -
18/11:30am 28.5 WNW 9 17 1012.1 - 0.2 - Mostly clear 10 - - - -
18/11:00am 27.4 NW 9 16 1012.3 - 0.0 - Mostly clear 10 - - - -
18/10:30am 27.0 NW 9 15 1012.7 - 0.0 - Mostly clear 10 - - - -
18/10:00am 26.9 NW 9 16 1013.1 - 0.0 - Mostly clear 10 - - - -
18/09:30am 26.8 WNW 9 15 1013.4 - 0.0 - Mostly clear 10 - - - -
18/09:00am 26.1 WNW 7 12 1013.9 - 0.0 - Cloudy 10 - - - -
18/08:30am 26.1 WNW 7 13 1014.1 - 0.0 - Mostly clear 10 - - - -
18/08:05am 25.2 NW 7 11 1014.2 - 0.0 - Mostly clear 10 - - - -
18/08:03am 25.0 NW 7 11 1014.2 - 0.0 - Partly cloudy 10 - - - -
18/08:00am 24.9 NW 7 11 1014.2 - 0.0 - Partly cloudy 10 - - - -
18/07:48am 24.9 NW 6 10 1014.2 - 0.0 - Partly cloudy 10 - - - -
18/07:30am 24.6 NW 7 14 1014.2 - 0.0 - Partly cloudy 10 - - - -
18/07:16am 24.4 NW 7 13 1014.2 - 0.0 - Partly cloudy 10 - - - -
18/07:00am 24.3 NW 10 14 1014.2 - 0.0 - Partly cloudy 10 - - - -
18/06:30am 24.9 N 5 9 1014.0 - 0.0 - Partly cloudy 9 - - - -
18/06:00am 24.5 N 5 7 1013.7 - 0.0 - Cloudy 10 - - - -
18/05:30am 24.5 N 6 11 1013.5 - 0.0 - Partly cloudy 10 - - - -
18/05:00am 24.4 N 5 10 1013.5 - 0.0 - Partly cloudy 10 - - - -
18/04:30am 24.4 N 4 9 1013.5 - 0.0 - Partly cloudy 10 - - - -
18/04:00am 24.3 N 6 11 1013.4 - 0.0 - Partly cloudy 9 - - - -
18/03:49am 24.4 N 5 8 1013.4 - 0.0 - Partly cloudy 9 - - - -
18/03:30am 24.3 NNE 6 13 1013.5 - 0.0 - Partly cloudy 9 - - - -
18/03:28am 24.4 NNE 6 13 1013.5 - 0.0 - Partly cloudy 9 - - - -
18/03:00am 24.3 NNE 7 11 1013.8 - 0.0 - Cloudy 10 - - - -
18/02:30am 24.3 NNE 8 14 1013.9 - 0.0 - Partly cloudy 10 - - - -
18/02:27am 24.3 NNE 8 13 1014.0 - 0.0 - Partly cloudy 10 - - - -
18/02:12am 24.3 N 7 13 1014.2 - 0.0 - Partly cloudy 10 - - - -
18/02:00am 24.3 N 9 14 1014.3 - 0.0 - Partly cloudy 10 - - - -
18/01:30am 24.4 N 7 14 1014.8 - 0.0 - Partly cloudy 10 - - - -
18/01:00am 24.5 N 6 11 1015.3 - 0.0 - Partly cloudy 10 - - - -
18/12:30am 24.5 NNE 8 14 1015.7 - 0.0 - Partly cloudy 10 - - - -
18/12:02am 24.4 NE 7 15 1016.2 - 0.0 - Partly cloudy 10 - - - -
18/12:00am 24.4 NE 8 15 1016.2 - 0.0 - Cloudy 10 - - - -
 
Date/Time
EDT
Temp
°C
Wind Pressure Rain since
9am
mm
Weather Cloud Vis
km
Sea
Height
m
Swell
Dir  Spd
kts
Gust
kts
hPa Trend Height
m
Period
s
Dir
17/11:54pm 24.4 NE 8 12 1016.3 - 0.0 - Partly cloudy 10 - - - -
17/11:30pm 24.5 NE 7 11 1016.7 - 0.0 - Partly cloudy 10 - - - -
17/11:00pm 24.6 NE 7 9 1017.2 - 0.0 - Partly cloudy 10 - - - -
17/10:30pm 24.4 NE 7 9 1017.4 - 0.0 - Partly cloudy 10 - - - -
17/10:10pm 24.4 NE 6 10 1017.5 - 0.0 - Partly cloudy 10 - - - -
17/10:00pm 24.3 NE 6 11 1017.5 - 0.0 - Partly cloudy 10 - - - -
17/09:30pm 24.4 NNE 7 9 1017.4 - 0.0 - Partly cloudy 10 - - - -
17/09:00pm 24.4 NNE 5 9 1017.5 - 0.0 - Mostly clear 10 - - - -
17/08:30pm 24.4 NNE 5 8 1017.4 - 0.0 - - 10 - - - -
17/08:00pm 24.4 NNE 4 9 1017.2 - 0.0 - - 10 - - - -
17/07:30pm 24.6 NE 6 11 1016.9 - 0.0 - Partly cloudy 10 - - - -
17/07:00pm 24.8 NNE 9 11 1016.5 - 0.0 - Partly cloudy 10 - - - -
17/06:30pm 25.4 NNE 10 13 1016.3 - 0.0 - Partly cloudy 10 - - - -
17/06:00pm 25.8 NNE 10 13 1016.1 - 0.0 - - 10 - - - -
17/05:39pm 25.9 NNE 10 12 1016.1 - 0.0 - Partly cloudy 10 - - - -
17/05:30pm 25.6 NNE 9 11 1016.1 - 0.0 - Partly cloudy 10 - - - -
17/05:04pm 25.9 NNE 9 11 1016.2 - 0.0 - Partly cloudy 10 - - - -
17/05:00pm 25.7 NNE 9 11 1016.2 - 0.0 - Partly cloudy 10 - - - -
17/04:30pm 26.1 NNE 9 11 1016.5 - 0.0 - Partly cloudy 10 - - - -
17/04:03pm 25.6 NNE 8 10 1016.7 - 0.0 - Partly cloudy 10 - - - -
17/04:00pm 25.8 NNE 8 10 1016.7 - 0.0 - Partly cloudy 10 - - - -
17/03:30pm 26.4 NNE 9 11 1016.8 - 0.0 - Mostly clear 10 - - - -
17/03:00pm 26.8 NNE 10 13 1016.7 - 0.0 - Cloudy 10 - - - -
17/02:30pm 26.8 NNE 10 14 1016.7 - 0.0 - Mostly clear 10 - - - -
17/02:00pm 26.8 NNE 12 15 1016.7 - 0.0 - Mostly clear 10 - - - -
17/01:30pm 27.9 NNE 10 11 1017.4 - 0.0 - Mostly clear 10 - - - -
17/01:00pm 27.7 NE 9 10 1018.0 - 0.0 - - 10 - - - -
17/12:30pm 27.3 NE 9 11 1018.4 - 0.0 - Mostly clear 10 - - - -
17/12:00pm 27.2 NE 8 10 1018.5 - 0.0 - Mostly clear 10 - - - -
17/11:30am 27.5 NE 9 10 1018.4 - 0.0 - Mostly clear 10 - - - -
17/11:00am 27.2 NE 9 10 1018.6 - 0.0 - Mostly clear 10 - - - -
17/10:30am 27.7 NE 9 10 1018.8 - 0.0 - Mostly clear 10 - - - -
17/10:00am 26.4 NE 8 10 1018.8 - 0.0 - Partly cloudy 10 - - - -
17/09:30am 26.0 NE 8 9 1018.8 - 0.0 - Mostly clear 10 - - - -
17/09:00am 25.6 NE 8 9 1018.8 - 0.0 - Cloudy 10 - - - -
17/08:30am 25.3 NE 8 10 1018.7 - 0.0 - Partly cloudy 10 - - - -
17/08:00am 25.2 NE 8 10 1018.5 - 0.0 - Mostly clear 10 - - - -
17/07:50am 25.3 NE 8 10 1018.4 - 0.0 - Partly cloudy 10 - - - -
17/07:38am 24.9 NE 8 10 1018.4 - 0.0 - Partly cloudy 10 - - - -
17/07:30am 24.6 NE 8 10 1018.3 - 0.0 - Partly cloudy 10 - - - -
17/07:00am 24.6 NE 7 9 1018.0 - 0.0 - Partly cloudy 10 - - - -
17/06:30am 23.5 NE 6 8 1018.0 - 0.0 - Partly cloudy 9 - - - -
17/06:00am 23.4 NE 7 8 1017.7 - 0.0 - Partly cloudy 9 - - - -
17/05:30am 23.5 NE 8 9 1017.5 - 0.0 - Cloudy 9 - - - -
17/05:00am 23.6 NE 7 9 1017.4 - 0.0 - Cloudy 10 - - - -
17/04:30am 23.5 NE 7 8 1017.3 - 0.0 - Partly cloudy 9 - - - -
17/04:00am 23.4 NE 6 7 1017.2 - 0.0 - Partly cloudy 9 - - - -
17/03:30am 23.5 NE 7 8 1017.3 - 0.0 - Cloudy 9 - - - -
17/03:00am 23.6 NE 7 8 1017.3 - 0.0 - Cloudy 9 - - - -
17/02:30am 23.6 NE 7 8 1017.4 - 0.0 - Partly cloudy 10 - - - -

Other Formats:

Comma delimited format used in spreadsheet applications
http://www.bom.gov.au/fwo/IDN60701/IDN60701.94995.axf

JavaScript Object Notation format (JSON) in row-major order
http://www.bom.gov.au/fwo/IDN60701/IDN60701.94995.json